Time;durP1;ratioP1;P1;durP2;ratioP2;P2;SDS_P1;SDS_P2;PMS_P1;PMS_P2;Temp;Humidity;BMP_temperature;BMP_pressure;BME280_temperature;BME280_humidity;BME280_pressure;Samples;Min_cycle;Max_cycle;Signal;HPM_P1;HPM_P2
2022/02/14 00:02:00;;;;;;;14.80;9.38;;;;;;;11.88;37.15;100659.45;1729556;80;21676;-57
2022/02/14 00:04:26;;;;;;;12.53;9.20;;;;;;;11.78;37.31;100654.94;1741539;81;22404;-56
2022/02/14 00:06:55;;;;;;;17.07;9.53;;;;;;;11.94;37.17;100650.09;1729947;80;21567;-56
2022/02/14 00:09:23;;;;;;;16.85;9.08;;;;;;;11.81;37.55;100644.75;1728829;80;21396;-56
2022/02/14 00:11:49;;;;;;;14.60;9.03;;;;;;;12.04;37.03;100637.01;1715848;81;21135;-56
2022/02/14 00:14:17;;;;;;;12.35;7.78;;;;;;;11.93;37.09;100640.91;1719206;81;20998;-57
2022/02/14 00:16:45;;;;;;;15.60;8.63;;;;;;;12.02;36.88;100632.71;1726412;81;21734;-56
2022/02/14 00:20:14;;;;;;;12.95;7.55;;;;;;;9.10;43.80;100634.32;1788932;78;23225;-56
2022/02/14 00:22:43;;;;;;;14.33;8.10;;;;;;;11.48;38.10;100635.23;1774066;80;21604;-56
2022/02/14 00:25:09;;;;;;;12.27;7.23;;;;;;;11.54;37.79;100639.91;1761317;80;22617;-56
2022/02/14 00:27:37;;;;;;;12.70;7.28;;;;;;;11.74;37.47;100635.34;1760814;80;20982;-55
2022/02/14 00:30:06;;;;;;;9.53;6.55;;;;;;;11.91;37.18;100633.52;1763278;80;21548;-56
2022/02/14 00:32:35;;;;;;;12.37;7.20;;;;;;;11.75;37.33;100632.63;1759068;80;20984;-56
2022/02/14 00:35:02;;;;;;;10.00;7.05;;;;;;;11.71;37.54;100632.80;1754422;80;21680;-56
2022/02/14 00:37:29;;;;;;;12.45;7.15;;;;;;;11.72;37.47;100627.95;1761727;80;22398;-56
2022/02/14 00:39:55;;;;;;;9.55;6.70;;;;;;;11.83;37.27;100624.05;1768461;80;21498;-56
2022/02/14 00:42:23;;;;;;;11.68;7.33;;;;;;;11.70;37.28;100629.31;1759811;80;21419;-56
2022/02/14 00:44:50;;;;;;;12.23;7.50;;;;;;;11.77;37.30;100624.69;1750794;80;21495;-56
2022/02/14 00:47:17;;;;;;;10.63;7.17;;;;;;;11.83;37.20;100620.56;1765502;80;21560;-56
2022/02/14 00:49:43;;;;;;;10.68;6.80;;;;;;;11.64;37.40;100621.14;1757778;80;21786;-56
2022/02/14 00:52:10;;;;;;;14.55;7.65;;;;;;;11.52;37.59;100618.88;1756274;80;21459;-56
2022/02/14 00:54:36;;;;;;;12.15;7.40;;;;;;;11.47;37.63;100619.47;1761964;80;21530;-56
2022/02/14 00:57:03;;;;;;;18.87;8.48;;;;;;;11.68;37.42;100618.81;1770394;80;21423;-56
2022/02/14 00:59:30;;;;;;;;;;;;;;;11.63;37.43;100614.60;1754099;80;20945;-57
2022/02/14 01:01:57;;;;;;;10.78;7.35;;;;;;;11.72;37.27;100607.72;1753701;80;22713;-57
2022/02/14 01:04:23;;;;;;;14.03;8.05;;;;;;;11.56;37.38;100607.80;1763662;80;21380;-56
2022/02/14 01:06:50;;;;;;;10.65;6.80;;;;;;;11.76;37.07;100608.02;1770808;80;21446;-56
2022/02/14 01:09:16;;;;;;;10.40;7.55;;;;;;;11.91;36.84;100604.53;1763648;80;21538;-56
2022/02/14 01:11:43;;;;;;;12.47;7.15;;;;;;;11.94;36.74;100608.36;1758646;80;21546;-56
2022/02/14 01:14:09;;;;;;;9.70;6.75;;;;;;;11.80;36.85;100605.69;1696593;83;22377;-56
2022/02/14 01:16:37;;;;;;;9.10;6.65;;;;;;;11.77;36.87;100604.92;1710200;83;21541;-56
2022/02/14 01:19:04;;;;;;;12.47;7.67;;;;;;;11.64;37.02;100609.72;1726540;81;21451;-56
2022/02/14 01:21:31;;;;;;;10.05;5.37;;;;;;;11.68;36.97;100604.78;1767535;80;20950;-56
2022/02/14 01:23:57;;;;;;;8.48;6.30;;;;;;;11.48;37.31;100600.98;1753706;80;21525;-56
2022/02/14 01:26:25;;;;;;;12.18;6.72;;;;;;;11.41;37.30;100598.14;1757796;80;22323;-56
2022/02/14 01:28:52;;;;;;;10.48;6.95;;;;;;;11.54;37.23;100595.98;1761954;80;21432;-56
2022/02/14 01:31:18;;;;;;;9.68;6.45;;;;;;;11.44;37.30;100599.83;1769790;80;21522;-57
2022/02/14 01:33:47;;;;;;;8.98;6.10;;;;;;;11.69;36.94;100595.49;1752441;80;21553;-57
2022/02/14 01:36:14;;;;;;;8.60;5.83;;;;;;;11.74;36.80;100586.14;1762401;80;21336;-56
2022/02/14 01:38:40;;;;;;;10.70;6.50;;;;;;;11.75;36.81;100590.48;1753857;80;22722;-56
2022/02/14 01:41:07;;;;;;;10.23;6.58;;;;;;;11.59;37.05;100587.95;1751931;80;21418;-56
2022/02/14 01:43:34;;;;;;;9.43;7.23;;;;;;;11.60;36.97;100583.96;1753894;80;21399;-56
2022/02/14 01:46:00;;;;;;;12.63;6.83;;;;;;;11.60;37.01;100580.02;1756017;80;21454;-56
2022/02/14 01:48:27;;;;;;;9.57;6.10;;;;;;;11.60;37.01;100580.44;1759943;80;21518;-56
2022/02/14 01:50:53;;;;;;;9.93;6.58;;;;;;;11.41;37.29;100574.91;1767524;80;22429;-56
2022/02/14 01:53:21;;;;;;;10.80;6.80;;;;;;;11.61;36.96;100571.18;1754718;80;21502;-56
2022/02/14 01:55:48;;;;;;;17.00;6.87;;;;;;;11.32;37.47;100569.48;1761728;80;21478;-56
2022/02/14 01:58:14;;;;;;;12.45;6.83;;;;;;;11.49;37.16;100572.44;1756182;80;21459;-56
2022/02/14 02:00:43;;;;;;;11.68;6.55;;;;;;;11.40;37.17;100571.88;1768825;80;21590;-56
2022/02/14 02:03:10;;;;;;;11.18;6.85;;;;;;;11.44;37.16;100571.72;1753377;80;22317;-56
2022/02/14 02:05:37;;;;;;;12.05;7.05;;;;;;;11.38;37.13;100566.66;1756633;80;21479;-56
2022/02/14 02:08:04;;;;;;;9.08;6.90;;;;;;;11.37;37.32;100570.64;1755183;80;21410;-56
2022/02/14 02:10:30;;;;;;;12.18;6.75;;;;;;;11.42;37.16;100566.96;1759911;80;21477;-56
2022/02/14 02:12:57;;;;;;;8.55;6.33;;;;;;;11.28;37.33;100555.55;1758210;80;21545;-56
2022/02/14 02:15:24;;;;;;;10.90;7.00;;;;;;;11.32;37.38;100554.12;1755385;80;22345;-56
2022/02/14 02:17:51;;;;;;;9.98;6.65;;;;;;;11.14;37.61;100553.80;1761816;80;21583;-56
2022/02/14 02:20:18;;;;;;;9.08;6.12;;;;;;;11.25;37.43;100545.11;1760614;80;21370;-56
2022/02/14 02:22:47;;;;;;;14.60;7.15;;;;;;;11.41;37.14;100542.84;1756764;80;21053;-56
2022/02/14 02:25:14;;;;;;;12.33;7.17;;;;;;;11.41;37.11;100538.03;1751492;80;20992;-56
2022/02/14 02:27:42;;;;;;;9.63;6.92;;;;;;;11.29;37.29;100536.20;1761324;80;22667;-56
2022/02/14 02:30:12;;;;;;;8.75;5.90;;;;;;;11.25;37.37;100526.68;1764117;80;21164;-55
2022/02/14 02:32:39;;;;;;;10.03;6.75;;;;;;;11.25;37.35;100536.36;1757484;80;21438;-56
2022/02/14 02:35:06;;;;;;;9.25;5.78;;;;;;;11.09;37.59;100530.27;1757825;80;21544;-56
2022/02/14 02:37:33;;;;;;;9.70;6.28;;;;;;;11.21;37.42;100534.73;1758185;80;21429;-56
2022/02/14 02:40:00;;;;;;;8.75;5.67;;;;;;;11.37;37.20;100533.78;1746798;80;22341;-56
2022/02/14 02:42:26;;;;;;;10.98;6.45;;;;;;;11.40;37.08;100541.59;1758298;80;20921;-56
2022/02/14 02:44:53;;;;;;;13.90;6.60;;;;;;;11.44;37.12;100540.59;1748910;80;21009;-56
2022/02/14 02:47:23;;;;;;;9.18;6.12;;;;;;;11.48;36.99;100550.10;1763305;80;21538;-56
2022/02/14 02:49:50;;;;;;;8.58;6.05;;;;;;;11.50;36.95;100549.59;1762205;80;21383;-56
2022/02/14 02:52:17;;;;;;;10.43;6.78;;;;;;;11.55;36.81;100546.37;1763958;80;22347;-56
2022/02/14 02:54:45;;;;;;;8.53;6.35;;;;;;;11.51;36.81;100543.43;1751873;80;21475;-56
2022/02/14 02:57:12;;;;;;;10.20;6.85;;;;;;;11.49;36.86;100539.98;1755181;80;21123;-56
2022/02/14 02:59:40;;;;;;;11.63;6.03;;;;;;;11.47;36.84;100537.83;1750200;80;20964;-56
2022/02/14 03:02:07;;;;;;;10.10;6.17;;;;;;;11.49;36.80;100536.04;1763321;80;21494;-56
2022/02/14 03:04:34;;;;;;;11.00;6.40;;;;;;;11.42;36.77;100529.23;1748768;80;22304;-56
2022/02/14 03:07:02;;;;;;;10.50;6.65;;;;;;;11.30;36.93;100530.04;1752796;80;21400;-56
2022/02/14 03:09:28;;;;;;;8.10;6.05;;;;;;;11.29;37.00;100526.13;1750735;80;21490;-56
2022/02/14 03:11:56;;;;;;;10.10;6.43;;;;;;;11.27;36.95;100530.12;1757049;80;21510;-56
2022/02/14 03:14:23;;;;;;;10.48;5.97;;;;;;;11.26;37.00;100523.58;1747967;80;21435;-56
2022/02/14 03:16:51;;;;;;;10.90;6.42;;;;;;;11.31;36.92;100521.67;1758081;80;22720;-56
2022/02/14 03:19:18;;;;;;;10.70;6.75;;;;;;;11.23;37.00;100521.06;1749372;80;21620;-56
2022/02/14 03:21:44;;;;;;;11.30;6.55;;;;;;;11.18;37.02;100514.62;1764366;80;21530;-56
2022/02/14 03:24:13;;;;;;;9.40;6.00;;;;;;;11.20;36.98;100517.20;1752986;80;21460;-56
2022/02/14 03:26:39;;;;;;;9.28;6.33;;;;;;;11.09;37.17;100525.00;1745803;80;21060;-56
2022/02/14 03:29:06;;;;;;;8.68;5.65;;;;;;;11.15;37.07;100525.27;1751519;80;22359;-56
2022/02/14 03:31:33;;;;;;;9.28;5.42;;;;;;;11.08;37.16;100525.04;1759241;80;21336;-56
2022/02/14 03:33:59;;;;;;;11.40;5.83;;;;;;;11.20;37.10;100526.42;1753523;80;21316;-57
2022/02/14 03:36:26;;;;;;;11.65;6.62;;;;;;;11.16;37.04;100520.85;1755968;80;21494;-56
2022/02/14 03:38:52;;;;;;;9.60;6.22;;;;;;;11.00;37.29;100522.64;1759401;80;20965;-56
2022/02/14 03:41:19;;;;;;;10.90;5.80;;;;;;;11.00;37.27;100521.76;1754181;80;22691;-56
2022/02/14 03:43:46;;;;;;;7.67;5.77;;;;;;;11.06;37.17;100521.59;1756175;80;21438;-56
2022/02/14 03:46:13;;;;;;;10.98;5.70;;;;;;;11.05;37.21;100522.48;1758876;80;21720;-56
2022/02/14 03:48:40;;;;;;;8.50;5.85;;;;;;;11.04;37.16;100521.64;1761732;80;20963;-56
2022/02/14 03:51:07;;;;;;;15.38;6.37;;;;;;;11.08;37.19;100515.83;1759968;80;21506;-56
2022/02/14 03:53:33;;;;;;;8.40;6.62;;;;;;;11.09;37.13;100520.16;1759622;80;21423;-55
2022/02/14 03:56:00;;;;;;;8.55;5.62;;;;;;;10.95;37.37;100517.97;1753224;80;21453;-56
2022/02/14 03:58:27;;;;;;;10.48;6.15;;;;;;;11.01;37.26;100512.97;1752548;80;21550;-56
2022/02/14 04:00:54;;;;;;;8.65;6.10;;;;;;;10.96;37.30;100510.46;1764087;80;21482;-56
2022/02/14 04:03:21;;;;;;;9.55;6.67;;;;;;;11.03;37.22;100510.69;1760038;80;21403;-56
2022/02/14 04:05:48;;;;;;;13.78;6.67;;;;;;;10.94;37.37;100510.11;1762596;80;22771;-56
2022/02/14 04:08:15;;;;;;;12.95;6.30;;;;;;;10.83;37.57;100499.48;1758703;80;21550;-55
2022/02/14 04:10:43;;;;;;;9.08;6.22;;;;;;;10.76;37.76;100495.30;1748280;80;21609;-56
2022/02/14 04:13:10;;;;;;;10.50;6.55;;;;;;;10.88;37.49;100492.28;1758774;80;21422;-56
2022/02/14 04:15:38;;;;;;;14.68;6.58;;;;;;;10.77;37.58;100487.80;1754002;80;20918;-56
2022/02/14 04:18:08;;;;;;;9.43;6.35;;;;;;;10.95;37.38;100488.17;1755411;80;22326;-56
2022/02/14 04:20:36;;;;;;;9.73;6.87;;;;;;;10.93;37.34;100489.99;1755947;80;21564;-56
2022/02/14 04:23:03;;;;;;;8.70;5.90;;;;;;;10.94;37.26;100486.44;1766754;80;21450;-56
2022/02/14 04:25:31;;;;;;;9.78;5.67;;;;;;;10.97;37.33;100483.72;1702109;83;21551;-56
2022/02/14 04:27:58;;;;;;;11.65;7.05;;;;;;;10.97;37.31;100493.78;1688580;83;21489;-56
2022/02/14 04:30:29;;;;;;;11.57;6.70;;;;;;;10.99;37.23;100488.48;1696214;83;21704;-56
2022/02/14 04:32:53;;;;;;;13.35;6.75;;;;;;;10.83;37.50;100491.59;1701791;83;21530;-56
2022/02/14 04:35:20;;;;;;;13.05;6.12;;;;;;;10.76;37.70;100486.56;1692579;83;21383;-56
2022/02/14 04:37:46;;;;;;;14.23;6.95;;;;;;;10.65;37.95;100486.41;1697647;83;21509;-56
2022/02/14 04:40:13;;;;;;;11.43;6.42;;;;;;;10.78;37.79;100487.37;1696017;82;21389;-56
2022/02/14 04:42:41;;;;;;;15.43;6.70;;;;;;;10.50;38.21;100490.34;1693154;83;22483;-56
2022/02/14 04:45:09;;;;;;;13.50;7.67;;;;;;;10.75;37.78;100486.98;1695676;82;21412;-56
2022/02/14 04:47:36;;;;;;;32.25;13.22;;;;;;;10.74;37.80;100490.97;1723377;82;21506;-56
2022/02/14 04:50:04;;;;;;;22.37;11.97;;;;;;;10.78;37.74;100487.37;1691145;83;21126;-56
2022/02/14 04:52:30;;;;;;;;;;;;;;;10.83;37.64;100495.96;1711698;83;21542;-56
2022/02/14 04:54:57;;;;;;;12.93;7.50;;;;;;;10.91;37.45;100501.41;1688316;83;21371;-55
2022/02/14 04:57:23;;;;;;;11.70;7.12;;;;;;;10.38;38.05;100510.43;1705480;82;20866;-56
2022/02/14 04:59:50;;;;;;;23.30;11.30;;;;;;;10.65;37.97;100511.85;1686927;83;21510;-56
2022/02/14 05:02:16;;;;;;;17.65;9.60;;;;;;;10.77;37.83;100506.21;1706101;82;21509;-56
2022/02/14 05:04:43;;;;;;;29.55;14.07;;;;;;;10.77;37.71;100509.30;1703185;82;21001;-56
2022/02/14 05:07:10;;;;;;;20.10;11.03;;;;;;;10.90;37.54;100516.77;1700620;82;22304;-56
2022/02/14 05:09:37;;;;;;;11.97;7.25;;;;;;;10.78;37.70;100512.36;1697747;83;20920;-56
2022/02/14 05:12:04;;;;;;;12.10;7.28;;;;;;;10.56;38.06;100521.32;1710734;83;21486;-56
2022/02/14 05:14:32;;;;;;;10.08;7.58;;;;;;;10.71;37.98;100519.55;1703865;82;21545;-55
2022/02/14 05:16:59;;;;;;;12.63;7.25;;;;;;;10.47;38.35;100525.06;1705032;83;21656;-55
2022/02/14 05:19:26;;;;;;;9.17;6.27;;;;;;;10.62;38.11;100526.39;1703274;82;22362;-55
2022/02/14 05:21:52;;;;;;;14.95;6.80;;;;;;;10.58;38.21;100529.56;1687759;82;21428;-55
2022/02/14 05:24:19;;;;;;;10.98;6.75;;;;;;;10.46;38.39;100536.50;1685522;82;21430;-56
2022/02/14 05:26:45;;;;;;;13.43;6.83;;;;;;;10.54;38.34;100542.39;1684598;82;21535;-56
2022/02/14 05:29:12;;;;;;;13.85;6.65;;;;;;;10.60;38.28;100545.30;1683069;82;21650;-55
2022/02/14 05:31:39;;;;;;;8.73;6.00;;;;;;;10.70;38.07;100554.21;1682883;82;22475;-55
2022/02/14 05:34:07;;;;;;;12.47;7.53;;;;;;;10.79;38.00;100553.52;1687346;83;20890;-56
2022/02/14 05:36:34;;;;;;;9.93;7.35;;;;;;;10.62;38.18;100551.38;1682412;82;21447;-55
2022/02/14 12:36:33;;;;;;;2.37;2.15;;;;;;;16.15;23.68;100422.84;1789121;78;22443;-60
2022/02/14 12:39:00;;;;;;;2.15;1.95;;;;;;;18.21;21.34;100417.62;1771312;80;21351;-60
2022/02/14 12:41:26;;;;;;;3.12;2.20;;;;;;;18.45;21.41;100414.38;1767906;80;22600;-59
2022/02/14 12:43:53;;;;;;;3.22;2.05;;;;;;;18.19;21.15;100416.02;1763667;80;21493;-59
2022/02/14 12:46:22;;;;;;;3.02;2.40;;;;;;;18.18;21.35;100405.01;1761308;80;21589;-57
2022/02/14 12:48:52;;;;;;;2.83;2.27;;;;;;;18.15;21.84;100407.36;1764883;80;21399;-58
2022/02/14 12:51:26;;;;;;;3.47;2.40;;;;;;;17.86;22.02;100411.84;1732456;81;21371;-57
2022/02/14 12:54:01;;;;;;;5.12;3.20;;;;;;;18.18;22.61;100407.67;1755995;80;22432;-56
2022/02/14 12:56:36;;;;;;;4.83;3.12;;;;;;;18.10;22.42;100409.45;1719676;81;21483;-57
2022/02/14 12:59:12;;;;;;;6.08;3.60;;;;;;;18.39;22.47;100402.80;1700019;83;21454;-55
2022/02/14 13:01:44;;;;;;;5.05;4.28;;;;;;;18.47;22.49;100409.33;1697861;83;21896;-55
2022/02/14 13:04:17;;;;;;;3.62;2.60;;;;;;;18.74;22.18;100410.31;1720784;82;21422;-58
2022/02/14 13:06:52;;;;;;;4.25;2.72;;;;;;;18.54;22.06;100415.12;1716774;82;22556;-55
2022/02/14 13:09:27;;;;;;;5.10;2.62;;;;;;;17.97;21.49;100412.03;1701897;82;21446;-56
2022/02/14 13:12:03;;;;;;;5.35;2.50;;;;;;;18.04;21.83;100413.34;1708602;82;21320;-58
2022/02/14 13:14:36;;;;;;;4.58;2.40;;;;;;;18.02;21.82;100415.73;1715638;82;21557;-57
2022/02/14 13:17:05;;;;;;;3.12;2.33;;;;;;;17.83;21.74;100406.17;1718470;82;21465;-56
2022/02/14 13:19:33;;;;;;;2.37;2.17;;;;;;;17.64;21.71;100405.11;1714130;82;21600;-56
2022/02/14 13:22:01;;;;;;;3.17;2.22;;;;;;;17.35;21.84;100398.88;1717266;82;21428;-57
2022/02/14 13:24:31;;;;;;;3.15;2.30;;;;;;;17.43;21.77;100395.77;1712782;82;21400;-57
2022/02/14 13:27:14;;;;;;;3.62;2.95;;;;;;;17.67;22.01;100401.43;1714212;82;21489;-57
2022/02/14 13:29:44;;;;;;;5.83;2.83;;;;;;;17.75;22.05;100399.15;1711631;81;21568;-57
2022/02/14 13:32:13;;;;;;;5.58;2.40;;;;;;;17.74;21.88;100400.08;1703301;83;21427;-58
2022/02/14 13:35:17;;;;;;;3.27;1.77;;;;;;;17.73;22.05;100398.88;1707108;83;21749;-58
2022/02/14 13:37:58;;;;;;;8.35;2.00;;;;;;;17.97;21.86;100401.39;1758990;80;21434;-55
2022/02/14 13:40:37;;;;;;;5.70;2.60;;;;;;;17.83;21.93;100392.87;1749158;80;21495;-57
2022/02/14 13:43:10;;;;;;;2.22;1.90;;;;;;;17.58;21.51;100394.00;1758247;80;21606;-57
2022/02/14 13:45:51;;;;;;;2.25;1.90;;;;;;;17.61;21.59;100392.02;1748707;80;22497;-55
2022/02/14 13:48:23;;;;;;;2.42;1.90;;;;;;;17.10;21.71;100392.80;1762677;80;21622;-57
2022/02/14 13:51:02;;;;;;;3.30;1.90;;;;;;;16.99;21.47;100400.53;1751051;80;21471;-56
2022/02/14 13:53:33;;;;;;;1.95;1.80;;;;;;;16.97;21.65;100388.70;1750804;80;21489;-56
2022/02/14 13:56:14;;;;;;;3.10;1.87;;;;;;;17.05;21.93;100391.75;1749459;80;21430;-56
2022/02/14 13:58:43;;;;;;;4.45;2.20;;;;;;;16.99;22.32;100390.79;1751922;80;22446;-55
2022/02/14 14:01:32;;;;;;;3.12;2.20;;;;;;;16.85;22.51;100382.75;1758673;80;21510;-56
2022/02/14 14:04:28;;;;;;;3.42;2.25;;;;;;;16.84;22.73;100375.26;1769868;80;21415;-55
2022/02/14 14:07:12;;;;;;;5.37;3.20;;;;;;;16.74;23.00;100380.66;1761212;80;21415;-56
2022/02/14 14:09:51;;;;;;;3.12;2.60;;;;;;;16.38;23.12;100380.45;1755780;80;20974;-56
2022/02/14 14:12:18;;;;;;;4.92;3.15;;;;;;;16.36;23.36;100381.01;1753312;80;22507;-55
2022/02/14 14:14:47;;;;;;;4.33;3.10;;;;;;;16.33;23.47;100383.37;1756359;80;21518;-56
2022/02/14 14:17:16;;;;;;;2.98;2.40;;;;;;;16.29;23.58;100375.65;1750116;80;21503;-56
2022/02/14 14:19:46;;;;;;;7.03;4.83;;;;;;;16.34;23.56;100374.45;1760168;80;21466;-56
2022/02/14 14:22:15;;;;;;;9.08;4.85;;;;;;;16.31;23.56;100368.02;1761744;80;21512;-57
2022/02/14 14:24:42;;;;;;;4.97;2.80;;;;;;;16.22;23.91;100377.80;1757204;80;22514;-56
2022/02/14 14:27:10;;;;;;;6.37;4.17;;;;;;;15.75;24.54;100378.08;1754517;80;21360;-56
2022/02/14 14:29:39;;;;;;;7.45;4.87;;;;;;;15.89;24.44;100379.98;1757375;80;21966;-57
2022/02/14 14:32:08;;;;;;;7.70;4.05;;;;;;;15.91;24.43;100382.56;1756878;80;21405;-56
2022/02/14 14:34:35;;;;;;;6.10;4.03;;;;;;;15.79;24.68;100380.58;1743451;80;21514;-56
2022/02/14 14:37:04;;;;;;;5.58;3.15;;;;;;;15.70;24.89;100384.05;1761485;80;22400;-56
2022/02/14 14:39:30;;;;;;;5.25;4.22;;;;;;;15.65;25.08;100382.13;1754647;80;21624;-56
2022/02/14 14:41:57;;;;;;;8.20;5.67;;;;;;;15.64;25.03;100381.73;1757944;80;21479;-56
2022/02/14 14:44:26;;;;;;;12.43;9.23;;;;;;;15.50;25.35;100378.92;1764141;80;21515;-56
2022/02/14 14:46:55;;;;;;;14.90;9.45;;;;;;;15.52;25.52;100385.87;1758179;80;21680;-55
2022/02/14 14:49:23;;;;;;;19.82;11.00;;;;;;;15.35;25.65;100387.19;1764831;80;22709;-56
2022/02/14 14:51:50;;;;;;;17.85;9.85;;;;;;;15.26;25.93;100390.33;1758432;80;21463;-56
2022/02/14 14:54:16;;;;;;;15.32;8.73;;;;;;;15.19;25.91;100389.77;1752404;80;20930;-56
2022/02/14 14:56:43;;;;;;;19.80;8.83;;;;;;;15.06;26.16;100390.84;1754346;80;21546;-56
2022/02/14 14:59:11;;;;;;;14.13;9.33;;;;;;;15.04;26.13;100390.05;1753905;80;21477;-56
2022/02/14 15:01:39;;;;;;;11.15;6.30;;;;;;;14.88;26.55;100395.27;1699658;82;22544;-56
2022/02/14 15:04:08;;;;;;;7.78;5.20;;;;;;;14.79;26.55;100396.55;1703784;83;20926;-56
2022/02/14 15:06:37;;;;;;;8.73;4.78;;;;;;;14.65;26.71;100400.31;1754978;80;21886;-56
2022/02/14 15:09:05;;;;;;;13.68;6.50;;;;;;;14.67;26.78;100394.48;1766531;80;21408;-56
2022/02/14 15:11:32;;;;;;;7.22;4.97;;;;;;;14.36;27.24;100399.87;1757235;80;21508;-56
2022/02/14 15:14:01;;;;;;;8.00;4.28;;;;;;;14.49;27.23;100405.93;1751205;80;21217;-56
2022/02/14 15:16:28;;;;;;;7.67;4.08;;;;;;;14.37;27.43;100401.61;1764378;80;26398;-56
2022/02/14 15:18:57;;;;;;;6.95;4.85;;;;;;;14.35;27.51;100406.55;1755577;80;21568;-55
2022/02/14 15:21:23;;;;;;;9.40;5.50;;;;;;;14.35;27.50;100408.76;1766632;80;21419;-56
2022/02/14 15:23:50;;;;;;;9.03;5.90;;;;;;;14.33;27.52;100414.55;1760556;80;21537;-55
2022/02/14 15:26:18;;;;;;;12.77;6.63;;;;;;;14.32;27.55;100406.72;1729813;80;22402;-55
2022/02/14 15:28:45;;;;;;;;;;;;;;;14.26;27.50;100409.63;1754522;80;21734;-55
2022/02/14 15:31:14;;;;;;;15.80;8.73;;;;;;;14.19;27.85;100401.98;1751682;80;20464;-55
2022/02/14 15:33:41;;;;;;;12.60;7.10;;;;;;;14.12;27.58;100408.47;1758063;80;21515;-56
2022/02/14 15:36:08;;;;;;;11.55;6.87;;;;;;;14.11;27.71;100402.80;1748449;80;21508;-56
2022/02/14 15:38:35;;;;;;;11.87;5.77;;;;;;;14.11;27.74;100402.80;1752735;80;22496;-55
2022/02/14 15:41:05;;;;;;;8.98;5.22;;;;;;;14.05;27.84;100402.20;1756485;80;21422;-55
2022/02/14 15:43:33;;;;;;;8.65;5.40;;;;;;;13.96;27.97;100408.31;1730041;80;21589;-55
2022/02/14 15:46:01;;;;;;;12.20;7.72;;;;;;;14.00;28.05;100409.03;1752772;80;21429;-55
2022/02/14 15:48:29;;;;;;;15.93;9.53;;;;;;;13.90;28.21;100406.39;1743210;80;21518;-55
2022/02/14 15:50:56;;;;;;;23.65;11.60;;;;;;;13.83;28.43;100408.47;1753407;80;21558;-55
2022/02/14 15:53:25;;;;;;;30.37;15.53;;;;;;;13.77;28.44;100420.63;1747346;80;21309;-56
2022/02/14 15:55:53;;;;;;;38.80;16.80;;;;;;;13.73;28.68;100413.30;1749785;80;21375;-55
2022/02/14 15:58:20;;;;;;;;;;;;;;;13.63;28.75;100414.14;1756655;80;21388;-55
2022/02/14 16:00:46;;;;;;;24.20;13.53;;;;;;;13.51;29.08;100414.68;1757615;80;20417;-55
2022/02/14 16:03:15;;;;;;;21.02;12.18;;;;;;;13.39;28.90;100415.19;1749918;80;22499;-55
2022/02/14 16:05:41;;;;;;;39.25;21.30;;;;;;;13.34;28.99;100417.19;1754123;80;20920;-55
2022/02/14 16:08:09;;;;;;;19.15;11.40;;;;;;;13.25;29.22;100419.23;1755262;80;21363;-58
2022/02/14 16:10:36;;;;;;;52.62;20.57;;;;;;;13.19;29.38;100422.61;1757693;80;21465;-57
2022/02/14 16:13:03;;;;;;;49.48;21.48;;;;;;;13.16;29.47;100418.77;1754272;80;21523;-56
2022/02/14 16:15:31;;;;;;;43.58;22.25;;;;;;;13.16;29.47;100418.77;1723788;82;22684;-56
2022/02/14 16:17:59;;;;;;;33.92;17.40;;;;;;;13.08;30.32;100423.04;1742771;80;21559;-56
2022/02/14 16:20:26;;;;;;;19.30;11.00;;;;;;;13.14;30.08;100432.02;1744134;80;21564;-57
2022/02/14 16:22:54;;;;;;;11.63;8.23;;;;;;;13.13;30.12;100426.36;1746079;80;21415;-56
2022/02/14 16:25:21;;;;;;;14.53;11.68;;;;;;;13.05;30.28;100425.35;1754961;80;20993;-57
2022/02/14 16:27:50;;;;;;;15.55;10.70;;;;;;;13.03;30.38;100427.64;1744833;80;22573;-56
2022/02/14 16:30:16;;;;;;;15.00;9.60;;;;;;;12.96;30.65;100427.48;1742661;80;21575;-56
2022/02/14 16:32:43;;;;;;;11.93;7.95;;;;;;;12.96;30.62;100428.80;1743027;80;21602;-56
2022/02/14 16:35:16;;;;;;;8.10;6.60;;;;;;;12.76;30.92;100432.25;1676920;84;21664;-57
2022/02/14 16:37:43;;;;;;;10.85;7.33;;;;;;;12.82;30.85;100429.36;1748192;80;21598;-56
2022/02/14 16:40:12;;;;;;;11.97;7.33;;;;;;;12.78;30.98;100425.12;1751406;80;22824;-57
2022/02/14 16:42:40;;;;;;;11.97;7.37;;;;;;;12.78;31.08;100427.30;1748993;80;20973;-56
2022/02/14 16:45:08;;;;;;;10.63;6.87;;;;;;;12.76;31.13;100423.86;1761429;80;21422;-56
2022/02/14 16:47:36;;;;;;;11.03;7.20;;;;;;;12.81;31.10;100430.30;1758877;80;21614;-56
2022/02/14 16:50:04;;;;;;;9.37;6.73;;;;;;;12.79;31.17;100425.08;1761639;80;21434;-56
2022/02/14 16:52:32;;;;;;;;;;;;;;;12.82;31.05;100425.40;1760080;80;22577;-59
2022/02/14 16:54:59;;;;;;;8.75;6.55;;;;;;;12.75;31.30;100428.76;1758157;80;20759;-57
2022/02/14 16:57:27;;;;;;;8.80;6.58;;;;;;;12.70;31.12;100425.44;1759354;80;21418;-57
2022/02/14 16:59:54;;;;;;;9.48;6.10;;;;;;;12.63;31.32;100423.95;1755689;80;21625;-57
2022/02/14 17:02:21;;;;;;;9.50;5.85;;;;;;;12.60;31.29;100431.97;1751667;80;21507;-56
2022/02/14 17:04:48;;;;;;;11.78;6.45;;;;;;;12.62;31.31;100425.73;1762450;80;22778;-56
2022/02/14 17:07:15;;;;;;;9.73;7.75;;;;;;;12.56;31.42;100423.78;1750309;80;21348;-56
2022/02/14 17:09:41;;;;;;;8.15;6.17;;;;;;;12.55;31.41;100428.67;1762661;80;21520;-56
2022/02/14 17:12:09;;;;;;;10.05;6.90;;;;;;;12.47;31.57;100428.97;1757903;80;21446;-56
2022/02/14 17:14:38;;;;;;;16.50;9.90;;;;;;;12.52;31.49;100423.50;1762176;80;21496;-57
2022/02/14 17:17:05;;;;;;;11.43;7.58;;;;;;;12.49;31.64;100426.25;1766281;80;22443;-56
2022/02/14 17:19:31;;;;;;;8.95;6.95;;;;;;;12.53;31.55;100425.23;1755256;80;21584;-57
2022/02/14 17:21:58;;;;;;;12.93;7.87;;;;;;;12.56;31.53;100425.09;1756833;80;21430;-57
2022/02/14 17:24:25;;;;;;;11.95;7.92;;;;;;;12.56;31.44;100423.78;1759190;80;21596;-56
2022/02/14 17:26:53;;;;;;;11.12;7.47;;;;;;;12.53;31.49;100418.17;1757673;80;20946;-56
2022/02/14 17:29:23;;;;;;;11.60;6.72;;;;;;;12.45;31.46;100411.88;1759198;80;22467;-57
2022/02/14 17:31:54;;;;;;;9.35;5.53;;;;;;;12.38;31.68;100416.13;1717392;81;21390;-56
2022/02/14 17:34:22;;;;;;;10.60;7.28;;;;;;;12.37;31.71;100418.34;1768331;80;21446;-56
2022/02/14 17:36:48;;;;;;;11.00;7.60;;;;;;;12.34;31.63;100421.09;1756630;80;21492;-57
2022/02/14 17:39:17;;;;;;;10.80;7.33;;;;;;;12.31;31.77;100419.91;1747392;80;21420;-57
2022/02/14 17:41:47;;;;;;;11.67;6.80;;;;;;;12.22;31.78;100411.88;1751342;80;22789;-57
2022/02/14 17:44:13;;;;;;;12.07;7.17;;;;;;;12.14;31.86;100411.31;1756378;80;21441;-57
2022/02/14 17:46:41;;;;;;;10.03;6.97;;;;;;;12.08;31.98;100410.61;1747392;80;21606;-56
2022/02/14 17:49:08;;;;;;;11.20;6.97;;;;;;;12.06;32.09;100408.49;1755672;80;21483;-57
2022/02/14 17:51:34;;;;;;;16.50;8.97;;;;;;;12.01;32.30;100406.94;1752406;80;21579;-57
2022/02/14 17:54:02;;;;;;;14.20;8.00;;;;;;;11.97;32.28;100416.73;1748641;80;22628;-57
2022/02/14 17:56:30;;;;;;;12.25;8.65;;;;;;;11.87;32.53;100406.95;1754783;80;21375;-57
2022/02/14 17:58:56;;;;;;;14.05;9.03;;;;;;;11.90;32.53;100407.33;1747573;80;20938;-57
2022/02/14 18:01:23;;;;;;;17.07;9.88;;;;;;;12.01;32.34;100405.63;1743583;80;21427;-57
2022/02/14 18:03:50;;;;;;;15.90;9.33;;;;;;;12.00;32.50;100402.14;1749717;80;21432;-57
2022/02/14 18:06:17;;;;;;;21.20;15.38;;;;;;;11.99;32.44;100404.36;1754894;80;22556;-57
2022/02/14 18:08:44;;;;;;;18.27;12.80;;;;;;;12.00;32.44;100400.82;1710427;82;21515;-56
2022/02/14 18:11:12;;;;;;;15.55;10.55;;;;;;;12.03;32.40;100402.00;1746493;80;21513;-57
2022/02/14 18:14:00;;;;;;;22.62;14.45;;;;;;;12.08;32.27;100400.06;1746516;80;21419;-57
2022/02/14 18:16:08;;;;;;;20.45;14.15;;;;;;;12.07;32.34;100395.73;1748903;80;21577;-57
2022/02/14 18:18:36;;;;;;;19.73;11.43;;;;;;;12.16;32.19;100397.14;1749071;80;22563;-58
2022/02/14 18:21:03;;;;;;;14.25;10.82;;;;;;;12.14;32.19;100395.49;1752246;80;21410;-57
2022/02/14 18:23:31;;;;;;;16.40;11.63;;;;;;;12.16;32.18;100393.19;1748316;80;21533;-57
2022/02/14 18:25:58;;;;;;;11.88;9.33;;;;;;;12.17;32.17;100395.39;1747371;80;21418;-57